sensor_id;sensor_type;location;lat;lon;timestamp;pressure;altitude;pressure_sealevel;temperature;humidity
31011;BME280;26395;53.412;19.598;2022-10-17T00:08:56;101187.45;;;12.45;100.00
31011;BME280;26395;53.412;19.598;2022-10-17T00:23:59;101205.05;;;12.26;100.00
31011;BME280;26395;53.412;19.598;2022-10-17T00:39:03;101200.33;;;12.24;100.00
31011;BME280;26395;53.412;19.598;2022-10-17T00:54:07;101204.02;;;12.19;100.00
31011;BME280;26395;53.412;19.598;2022-10-17T01:09:11;101218.73;;;11.84;100.00
31011;BME280;26395;53.412;19.598;2022-10-17T01:24:40;101215.04;;;11.84;100.00
31011;BME280;26395;53.412;19.598;2022-10-17T01:40:06;101206.52;;;11.72;100.00
31011;BME280;26395;53.412;19.598;2022-10-17T01:55:17;101224.21;;;11.51;100.00
31011;BME280;26395;53.412;19.598;2022-10-17T02:40:51;101274.83;;;11.65;100.00
31011;BME280;26395;53.412;19.598;2022-10-17T02:56:02;101284.50;;;11.32;100.00
31011;BME280;26395;53.412;19.598;2022-10-17T03:11:07;101308.01;;;11.50;100.00
31011;BME280;26395;53.412;19.598;2022-10-17T03:26:10;101315.65;;;11.56;100.00
31011;BME280;26395;53.412;19.598;2022-10-17T03:41:14;101326.27;;;11.59;100.00
31011;BME280;26395;53.412;19.598;2022-10-17T03:56:23;101325.26;;;11.33;100.00
31011;BME280;26395;53.412;19.598;2022-10-17T04:11:41;101344.75;;;11.10;100.00
31011;BME280;26395;53.412;19.598;2022-10-17T04:26:44;101349.44;;;10.99;100.00
31011;BME280;26395;53.412;19.598;2022-10-17T04:41:48;101361.21;;;11.04;100.00
31011;BME280;26395;53.412;19.598;2022-10-17T04:56:52;101346.73;;;11.15;100.00
31011;BME280;26395;53.412;19.598;2022-10-17T05:11:56;101358.77;;;11.11;100.00
31011;BME280;26395;53.412;19.598;2022-10-17T05:27:00;101366.92;;;10.94;100.00
31011;BME280;26395;53.412;19.598;2022-10-17T05:42:03;101391.27;;;10.92;100.00
31011;BME280;26395;53.412;19.598;2022-10-17T05:57:07;101398.62;;;11.06;100.00
31011;BME280;26395;53.412;19.598;2022-10-17T06:12:11;101410.73;;;11.23;100.00
31011;BME280;26395;53.412;19.598;2022-10-17T06:27:16;101432.51;;;11.46;100.00
31011;BME280;26395;53.412;19.598;2022-10-17T06:42:20;101423.73;;;11.89;100.00
31011;BME280;26395;53.412;19.598;2022-10-17T06:57:44;101427.77;;;13.14;100.00
31011;BME280;26395;53.412;19.598;2022-10-17T07:13:06;101458.54;;;14.15;100.00
31011;BME280;26395;53.412;19.598;2022-10-17T07:28:13;101478.80;;;15.23;100.00
31011;BME280;26395;53.412;19.598;2022-10-17T07:43:17;101482.39;;;15.54;100.00
31011;BME280;26395;53.412;19.598;2022-10-17T07:58:20;101491.90;;;16.68;100.00
31011;BME280;26395;53.412;19.598;2022-10-17T08:13:24;101486.55;;;17.33;100.00
31011;BME280;26395;53.412;19.598;2022-10-17T08:28:27;101486.46;;;18.98;100.00
31011;BME280;26395;53.412;19.598;2022-10-17T08:59:24;101469.06;;;19.95;100.00
31011;BME280;26395;53.412;19.598;2022-10-17T09:14:40;101472.18;;;20.99;100.00
31011;BME280;26395;53.412;19.598;2022-10-17T09:29:48;101456.67;;;21.91;100.00
31011;BME280;26395;53.412;19.598;2022-10-17T09:45:22;101450.30;;;22.66;98.60
31011;BME280;26395;53.412;19.598;2022-10-17T10:00:29;101441.30;;;23.21;94.60
31011;BME280;26395;53.412;19.598;2022-10-17T10:15:36;101429.98;;;23.33;90.59
31011;BME280;26395;53.412;19.598;2022-10-17T10:30:44;101421.85;;;23.78;89.93
31011;BME280;26395;53.412;19.598;2022-10-17T10:45:50;101413.98;;;23.93;87.27
31011;BME280;26395;53.412;19.598;2022-10-17T11:09:53;101395.52;;;24.93;85.67
31011;BME280;26395;53.412;19.598;2022-10-17T11:25:04;101388.88;;;24.98;84.12
31011;BME280;26395;53.412;19.598;2022-10-17T11:55:27;101360.33;;;25.69;81.25
31011;BME280;26395;53.412;19.598;2022-10-17T12:25:53;101339.33;;;25.74;79.72
31011;BME280;26395;53.412;19.598;2022-10-17T12:41:06;101331.60;;;26.02;78.27
31011;BME280;26395;53.412;19.598;2022-10-17T12:56:44;101325.89;;;26.34;75.19
31011;BME280;26395;53.412;19.598;2022-10-17T13:11:48;101324.92;;;26.11;76.09
31011;BME280;26395;53.412;19.598;2022-10-17T13:26:53;101317.22;;;28.94;72.20
31011;BME280;26395;53.412;19.598;2022-10-17T13:41:57;101307.40;;;29.80;65.09
31011;BME280;26395;53.412;19.598;2022-10-17T13:57:02;101288.54;;;31.19;62.50
31011;BME280;26395;53.412;19.598;2022-10-17T14:12:10;101277.67;;;30.76;60.06
31011;BME280;26395;53.412;19.598;2022-10-17T14:27:31;101261.58;;;30.12;61.51
31011;BME280;26395;53.412;19.598;2022-10-17T14:42:38;101249.66;;;26.31;68.14
31011;BME280;26395;53.412;19.598;2022-10-17T14:57:44;101234.34;;;25.03;73.84
31011;BME280;26395;53.412;19.598;2022-10-17T15:12:48;101237.16;;;24.20;77.19
31011;BME280;26395;53.412;19.598;2022-10-17T15:28:08;101229.77;;;22.96;81.60
31011;BME280;26395;53.412;19.598;2022-10-17T15:43:14;101220.60;;;22.09;85.09
31011;BME280;26395;53.412;19.598;2022-10-17T15:58:21;101224.23;;;21.49;88.53
31011;BME280;26395;53.412;19.598;2022-10-17T16:13:24;101213.52;;;21.01;91.92
31011;BME280;26395;53.412;19.598;2022-10-17T16:28:28;101220.52;;;20.67;95.24
31011;BME280;26395;53.412;19.598;2022-10-17T16:43:31;101216.73;;;20.37;97.75
31011;BME280;26395;53.412;19.598;2022-10-17T16:58:39;101215.19;;;20.19;99.73
31011;BME280;26395;53.412;19.598;2022-10-17T17:13:42;101212.64;;;20.04;100.00
31011;BME280;26395;53.412;19.598;2022-10-17T17:28:47;101196.21;;;19.89;100.00
31011;BME280;26395;53.412;19.598;2022-10-17T17:43:52;101201.64;;;19.78;100.00
31011;BME280;26395;53.412;19.598;2022-10-17T17:58:58;101190.15;;;19.72;100.00
31011;BME280;26395;53.412;19.598;2022-10-17T18:14:05;101184.55;;;19.66;100.00
31011;BME280;26395;53.412;19.598;2022-10-17T18:29:09;101172.19;;;19.56;100.00
31011;BME280;26395;53.412;19.598;2022-10-17T18:44:15;101162.36;;;19.51;100.00
31011;BME280;26395;53.412;19.598;2022-10-17T18:59:22;101161.83;;;19.38;100.00
31011;BME280;26395;53.412;19.598;2022-10-17T19:14:27;101156.13;;;19.22;100.00
31011;BME280;26395;53.412;19.598;2022-10-17T19:29:32;101142.91;;;18.99;100.00
31011;BME280;26395;53.412;19.598;2022-10-17T19:44:36;101137.38;;;18.78;100.00
31011;BME280;26395;53.412;19.598;2022-10-17T19:59:39;101136.47;;;18.57;100.00
31011;BME280;26395;53.412;19.598;2022-10-17T20:14:43;101138.80;;;18.37;100.00
31011;BME280;26395;53.412;19.598;2022-10-17T20:29:46;101131.34;;;18.30;100.00
31011;BME280;26395;53.412;19.598;2022-10-17T20:44:49;101133.61;;;18.22;100.00
31011;BME280;26395;53.412;19.598;2022-10-17T20:59:52;101119.27;;;18.13;100.00
31011;BME280;26395;53.412;19.598;2022-10-17T21:14:56;101116.80;;;18.14;100.00
31011;BME280;26395;53.412;19.598;2022-10-17T21:29:59;101117.52;;;18.27;100.00
31011;BME280;26395;53.412;19.598;2022-10-17T21:45:03;101115.13;;;18.28;100.00
31011;BME280;26395;53.412;19.598;2022-10-17T22:00:17;101114.45;;;18.16;100.00
31011;BME280;26395;53.412;19.598;2022-10-17T22:15:21;101111.08;;;18.08;100.00
31011;BME280;26395;53.412;19.598;2022-10-17T22:30:24;101098.77;;;18.02;100.00
31011;BME280;26395;53.412;19.598;2022-10-17T22:45:27;101100.52;;;17.94;100.00
31011;BME280;26395;53.412;19.598;2022-10-17T23:00:30;101096.20;;;17.83;100.00
31011;BME280;26395;53.412;19.598;2022-10-17T23:15:33;101088.55;;;17.68;100.00
31011;BME280;26395;53.412;19.598;2022-10-17T23:30:37;101078.05;;;17.48;100.00
31011;BME280;26395;53.412;19.598;2022-10-17T23:45:41;101077.33;;;17.28;100.00
